sensor_id;sensor_type;location;lat;lon;timestamp;temperature;humidity
1716;DHT22;855;48.824;9.220;2023-04-25T00:01:33;11.00;78.70
1716;DHT22;855;48.824;9.220;2023-04-25T00:04:01;11.00;78.40
1716;DHT22;855;48.824;9.220;2023-04-25T00:06:30;11.00;78.40
1716;DHT22;855;48.824;9.220;2023-04-25T00:08:57;11.00;79.10
1716;DHT22;855;48.824;9.220;2023-04-25T00:11:24;11.00;78.80
1716;DHT22;855;48.824;9.220;2023-04-25T00:13:51;11.10;79.00
1716;DHT22;855;48.824;9.220;2023-04-25T00:16:18;11.20;79.00
1716;DHT22;855;48.824;9.220;2023-04-25T00:18:45;11.20;79.10
1716;DHT22;855;48.824;9.220;2023-04-25T00:21:17;11.30;78.70
1716;DHT22;855;48.824;9.220;2023-04-25T00:23:45;11.40;78.00
1716;DHT22;855;48.824;9.220;2023-04-25T00:26:12;11.40;77.20
1716;DHT22;855;48.824;9.220;2023-04-25T00:28:39;11.10;78.60
1716;DHT22;855;48.824;9.220;2023-04-25T00:31:06;11.20;79.00
1716;DHT22;855;48.824;9.220;2023-04-25T00:33:33;11.10;78.70
1716;DHT22;855;48.824;9.220;2023-04-25T00:36:00;11.20;78.70
1716;DHT22;855;48.824;9.220;2023-04-25T00:38:27;11.40;78.20
1716;DHT22;855;48.824;9.220;2023-04-25T00:40:55;11.50;77.80
1716;DHT22;855;48.824;9.220;2023-04-25T00:43:23;11.50;78.20
1716;DHT22;855;48.824;9.220;2023-04-25T00:45:52;11.40;78.70
1716;DHT22;855;48.824;9.220;2023-04-25T00:48:20;11.40;78.40
1716;DHT22;855;48.824;9.220;2023-04-25T00:50:52;11.40;78.60
1716;DHT22;855;48.824;9.220;2023-04-25T00:53:19;11.50;78.30
1716;DHT22;855;48.824;9.220;2023-04-25T00:55:46;11.60;78.30
1716;DHT22;855;48.824;9.220;2023-04-25T00:58:14;11.60;78.00
1716;DHT22;855;48.824;9.220;2023-04-25T01:00:42;11.60;77.90
1716;DHT22;855;48.824;9.220;2023-04-25T01:03:09;11.50;77.90
1716;DHT22;855;48.824;9.220;2023-04-25T01:05:36;11.50;77.80
1716;DHT22;855;48.824;9.220;2023-04-25T01:08:03;11.50;77.40
1716;DHT22;855;48.824;9.220;2023-04-25T01:10:30;11.50;77.20
1716;DHT22;855;48.824;9.220;2023-04-25T01:12:57;11.50;77.10
1716;DHT22;855;48.824;9.220;2023-04-25T01:15:25;11.50;77.10
1716;DHT22;855;48.824;9.220;2023-04-25T01:17:52;11.60;76.80
1716;DHT22;855;48.824;9.220;2023-04-25T01:20:21;11.60;76.80
1716;DHT22;855;48.824;9.220;2023-04-25T01:22:50;11.60;76.80
1716;DHT22;855;48.824;9.220;2023-04-25T01:25:17;11.60;76.70
1716;DHT22;855;48.824;9.220;2023-04-25T01:27:45;11.70;76.60
1716;DHT22;855;48.824;9.220;2023-04-25T01:30:13;11.70;76.20
1716;DHT22;855;48.824;9.220;2023-04-25T01:32:40;11.70;76.30
1716;DHT22;855;48.824;9.220;2023-04-25T01:35:10;11.70;76.40
1716;DHT22;855;48.824;9.220;2023-04-25T01:37:37;11.70;76.30
1716;DHT22;855;48.824;9.220;2023-04-25T01:40:07;11.70;76.00
1716;DHT22;855;48.824;9.220;2023-04-25T01:42:35;11.70;76.00
1716;DHT22;855;48.824;9.220;2023-04-25T01:45:03;11.60;76.20
1716;DHT22;855;48.824;9.220;2023-04-25T01:47:30;11.50;76.40
1716;DHT22;855;48.824;9.220;2023-04-25T01:49:57;11.50;77.00
1716;DHT22;855;48.824;9.220;2023-04-25T01:52:24;11.50;77.00
1716;DHT22;855;48.824;9.220;2023-04-25T01:54:51;11.60;77.00
1716;DHT22;855;48.824;9.220;2023-04-25T01:57:21;11.50;77.00
1716;DHT22;855;48.824;9.220;2023-04-25T01:59:47;11.50;77.00
1716;DHT22;855;48.824;9.220;2023-04-25T02:02:14;11.50;76.80
1716;DHT22;855;48.824;9.220;2023-04-25T02:04:41;11.50;76.60
1716;DHT22;855;48.824;9.220;2023-04-25T02:07:08;11.50;76.70
1716;DHT22;855;48.824;9.220;2023-04-25T02:09:35;11.50;76.70
1716;DHT22;855;48.824;9.220;2023-04-25T02:12:01;11.50;76.70
1716;DHT22;855;48.824;9.220;2023-04-25T02:14:30;11.50;76.40
1716;DHT22;855;48.824;9.220;2023-04-25T02:16:56;11.50;76.70
1716;DHT22;855;48.824;9.220;2023-04-25T02:19:23;11.40;77.10
1716;DHT22;855;48.824;9.220;2023-04-25T02:21:50;11.50;77.50
1716;DHT22;855;48.824;9.220;2023-04-25T02:24:17;11.50;77.80
1716;DHT22;855;48.824;9.220;2023-04-25T02:26:44;11.50;77.90
1716;DHT22;855;48.824;9.220;2023-04-25T02:29:12;11.50;77.60
1716;DHT22;855;48.824;9.220;2023-04-25T02:31:42;11.50;77.60
1716;DHT22;855;48.824;9.220;2023-04-25T02:34:08;11.40;77.80
1716;DHT22;855;48.824;9.220;2023-04-25T02:36:35;11.40;78.20
1716;DHT22;855;48.824;9.220;2023-04-25T02:39:02;11.40;78.30
1716;DHT22;855;48.824;9.220;2023-04-25T02:41:29;11.40;78.20
1716;DHT22;855;48.824;9.220;2023-04-25T02:43:56;11.30;78.40
1716;DHT22;855;48.824;9.220;2023-04-25T02:46:22;11.30;78.30
1716;DHT22;855;48.824;9.220;2023-04-25T02:48:51;11.40;77.80
1716;DHT22;855;48.824;9.220;2023-04-25T02:51:17;11.50;77.50
1716;DHT22;855;48.824;9.220;2023-04-25T02:53:44;11.50;77.40
1716;DHT22;855;48.824;9.220;2023-04-25T02:56:12;11.50;77.50
1716;DHT22;855;48.824;9.220;2023-04-25T02:58:39;11.50;77.60
1716;DHT22;855;48.824;9.220;2023-04-25T03:01:06;11.60;77.50
1716;DHT22;855;48.824;9.220;2023-04-25T03:03:32;11.60;77.60
1716;DHT22;855;48.824;9.220;2023-04-25T03:06:00;11.60;77.60
1716;DHT22;855;48.824;9.220;2023-04-25T03:08:27;11.60;77.80
1716;DHT22;855;48.824;9.220;2023-04-25T03:10:58;11.50;78.20
1716;DHT22;855;48.824;9.220;2023-04-25T03:13:24;11.50;78.70
1716;DHT22;855;48.824;9.220;2023-04-25T03:15:52;11.50;79.30
1716;DHT22;855;48.824;9.220;2023-04-25T03:18:19;11.40;80.90
1716;DHT22;855;48.824;9.220;2023-04-25T03:20:46;11.40;81.50
1716;DHT22;855;48.824;9.220;2023-04-25T03:23:14;11.40;81.50
1716;DHT22;855;48.824;9.220;2023-04-25T03:25:41;11.40;81.60
1716;DHT22;855;48.824;9.220;2023-04-25T03:28:08;11.50;81.30
1716;DHT22;855;48.824;9.220;2023-04-25T03:30:35;11.40;81.10
1716;DHT22;855;48.824;9.220;2023-04-25T03:33:02;11.40;81.20
1716;DHT22;855;48.824;9.220;2023-04-25T03:35:29;11.40;81.10
1716;DHT22;855;48.824;9.220;2023-04-25T03:37:55;11.30;80.80
1716;DHT22;855;48.824;9.220;2023-04-25T03:40:24;10.90;82.40
1716;DHT22;855;48.824;9.220;2023-04-25T03:42:50;10.90;83.70
1716;DHT22;855;48.824;9.220;2023-04-25T03:45:17;10.90;84.40
1716;DHT22;855;48.824;9.220;2023-04-25T03:47:44;10.90;84.60
1716;DHT22;855;48.824;9.220;2023-04-25T03:50:11;11.00;84.90
1716;DHT22;855;48.824;9.220;2023-04-25T03:52:38;11.00;85.30
1716;DHT22;855;48.824;9.220;2023-04-25T03:55:05;11.00;84.90
1716;DHT22;855;48.824;9.220;2023-04-25T03:57:33;11.00;85.00
1716;DHT22;855;48.824;9.220;2023-04-25T04:00:00;11.00;84.20
1716;DHT22;855;48.824;9.220;2023-04-25T04:02:28;11.10;83.80
1716;DHT22;855;48.824;9.220;2023-04-25T04:04:55;11.00;83.30
1716;DHT22;855;48.824;9.220;2023-04-25T04:07:22;11.00;82.50
1716;DHT22;855;48.824;9.220;2023-04-25T04:09:49;11.00;81.70
1716;DHT22;855;48.824;9.220;2023-04-25T04:12:16;10.90;81.60
1716;DHT22;855;48.824;9.220;2023-04-25T04:14:44;10.90;82.10
1716;DHT22;855;48.824;9.220;2023-04-25T04:17:10;10.80;82.10
1716;DHT22;855;48.824;9.220;2023-04-25T04:19:37;10.80;82.40
1716;DHT22;855;48.824;9.220;2023-04-25T04:22:04;10.90;82.40
1716;DHT22;855;48.824;9.220;2023-04-25T04:24:31;11.00;82.40
1716;DHT22;855;48.824;9.220;2023-04-25T04:26:58;11.00;82.30
1716;DHT22;855;48.824;9.220;2023-04-25T04:29:25;11.00;82.30
1716;DHT22;855;48.824;9.220;2023-04-25T04:31:54;11.00;82.80
1716;DHT22;855;48.824;9.220;2023-04-25T04:34:20;11.00;82.90
1716;DHT22;855;48.824;9.220;2023-04-25T04:36:49;11.00;82.50
1716;DHT22;855;48.824;9.220;2023-04-25T04:39:16;10.90;82.50
1716;DHT22;855;48.824;9.220;2023-04-25T04:41:43;10.90;82.10
1716;DHT22;855;48.824;9.220;2023-04-25T04:44:10;10.90;82.40
1716;DHT22;855;48.824;9.220;2023-04-25T04:46:37;10.90;82.50
1716;DHT22;855;48.824;9.220;2023-04-25T04:49:09;10.90;82.30
1716;DHT22;855;48.824;9.220;2023-04-25T04:51:35;10.90;82.30
1716;DHT22;855;48.824;9.220;2023-04-25T04:54:03;10.80;82.10
1716;DHT22;855;48.824;9.220;2023-04-25T04:56:30;10.70;82.10
1716;DHT22;855;48.824;9.220;2023-04-25T04:58:57;10.60;82.00
1716;DHT22;855;48.824;9.220;2023-04-25T05:01:25;10.60;82.30
1716;DHT22;855;48.824;9.220;2023-04-25T05:03:52;10.70;82.30
1716;DHT22;855;48.824;9.220;2023-04-25T05:06:20;10.70;82.40
1716;DHT22;855;48.824;9.220;2023-04-25T05:08:47;10.70;82.50
1716;DHT22;855;48.824;9.220;2023-04-25T05:11:14;10.70;82.70
1716;DHT22;855;48.824;9.220;2023-04-25T05:13:41;10.80;82.50
1716;DHT22;855;48.824;9.220;2023-04-25T05:16:08;10.80;82.50
1716;DHT22;855;48.824;9.220;2023-04-25T05:18:35;10.90;82.10
1716;DHT22;855;48.824;9.220;2023-04-25T05:21:01;10.80;82.00
1716;DHT22;855;48.824;9.220;2023-04-25T05:23:30;10.70;82.00
1716;DHT22;855;48.824;9.220;2023-04-25T05:25:57;10.70;82.10
1716;DHT22;855;48.824;9.220;2023-04-25T05:28:24;10.80;81.90
1716;DHT22;855;48.824;9.220;2023-04-25T05:30:51;10.70;82.00
1716;DHT22;855;48.824;9.220;2023-04-25T05:33:18;10.70;81.90
1716;DHT22;855;48.824;9.220;2023-04-25T05:35:45;10.70;82.00
1716;DHT22;855;48.824;9.220;2023-04-25T05:38:12;10.60;82.40
1716;DHT22;855;48.824;9.220;2023-04-25T05:40:40;10.70;83.40
1716;DHT22;855;48.824;9.220;2023-04-25T05:43:07;10.70;84.20
1716;DHT22;855;48.824;9.220;2023-04-25T05:45:34;10.50;85.60
1716;DHT22;855;48.824;9.220;2023-04-25T05:48:01;10.40;85.70
1716;DHT22;855;48.824;9.220;2023-04-25T05:50:28;10.30;86.40
1716;DHT22;855;48.824;9.220;2023-04-25T05:52:55;10.30;87.70
1716;DHT22;855;48.824;9.220;2023-04-25T05:55:22;10.30;87.80
1716;DHT22;855;48.824;9.220;2023-04-25T05:57:50;10.20;88.20
1716;DHT22;855;48.824;9.220;2023-04-25T06:00:17;10.30;88.90
1716;DHT22;855;48.824;9.220;2023-04-25T06:02:44;10.40;89.30
1716;DHT22;855;48.824;9.220;2023-04-25T06:05:11;10.30;88.60
1716;DHT22;855;48.824;9.220;2023-04-25T06:07:38;10.40;89.10
1716;DHT22;855;48.824;9.220;2023-04-25T06:10:06;10.40;88.90
1716;DHT22;855;48.824;9.220;2023-04-25T06:12:33;10.50;89.00
1716;DHT22;855;48.824;9.220;2023-04-25T06:15:01;10.60;88.70
1716;DHT22;855;48.824;9.220;2023-04-25T06:17:28;10.60;88.10
1716;DHT22;855;48.824;9.220;2023-04-25T06:19:55;10.60;88.10
1716;DHT22;855;48.824;9.220;2023-04-25T06:22:21;10.70;87.50
1716;DHT22;855;48.824;9.220;2023-04-25T06:24:48;10.70;86.90
1716;DHT22;855;48.824;9.220;2023-04-25T06:27:15;10.70;86.50
1716;DHT22;855;48.824;9.220;2023-04-25T06:29:42;10.70;85.80
1716;DHT22;855;48.824;9.220;2023-04-25T06:32:10;10.90;86.50
1716;DHT22;855;48.824;9.220;2023-04-25T06:34:37;10.80;85.70
1716;DHT22;855;48.824;9.220;2023-04-25T06:37:03;11.00;86.70
1716;DHT22;855;48.824;9.220;2023-04-25T06:39:30;11.10;85.70
1716;DHT22;855;48.824;9.220;2023-04-25T06:41:57;11.20;85.00
1716;DHT22;855;48.824;9.220;2023-04-25T06:44:24;11.30;84.90
1716;DHT22;855;48.824;9.220;2023-04-25T06:46:51;11.30;82.80
1716;DHT22;855;48.824;9.220;2023-04-25T06:49:20;11.50;83.20
1716;DHT22;855;48.824;9.220;2023-04-25T06:51:46;11.70;82.40
1716;DHT22;855;48.824;9.220;2023-04-25T06:54:13;11.80;82.50
1716;DHT22;855;48.824;9.220;2023-04-25T06:56:40;11.90;81.90
1716;DHT22;855;48.824;9.220;2023-04-25T06:59:07;11.80;80.70
1716;DHT22;855;48.824;9.220;2023-04-25T07:01:34;11.90;81.20
1716;DHT22;855;48.824;9.220;2023-04-25T07:04:01;12.00;80.50
1716;DHT22;855;48.824;9.220;2023-04-25T07:06:29;12.00;80.80
1716;DHT22;855;48.824;9.220;2023-04-25T07:08:56;12.20;82.50
1716;DHT22;855;48.824;9.220;2023-04-25T07:11:23;12.30;83.00
1716;DHT22;855;48.824;9.220;2023-04-25T07:13:50;12.40;79.30
1716;DHT22;855;48.824;9.220;2023-04-25T07:16:17;12.40;78.60
1716;DHT22;855;48.824;9.220;2023-04-25T07:18:44;12.10;79.30
1716;DHT22;855;48.824;9.220;2023-04-25T07:21:11;12.00;78.80
1716;DHT22;855;48.824;9.220;2023-04-25T07:23:39;12.10;80.00
1716;DHT22;855;48.824;9.220;2023-04-25T07:26:06;12.10;81.50
1716;DHT22;855;48.824;9.220;2023-04-25T07:28:33;12.00;82.30
1716;DHT22;855;48.824;9.220;2023-04-25T07:31:00;12.00;82.40
1716;DHT22;855;48.824;9.220;2023-04-25T07:33:27;12.10;82.00
1716;DHT22;855;48.824;9.220;2023-04-25T07:35:55;12.10;81.70
1716;DHT22;855;48.824;9.220;2023-04-25T07:38:22;11.90;81.90
1716;DHT22;855;48.824;9.220;2023-04-25T07:40:50;11.80;81.20
1716;DHT22;855;48.824;9.220;2023-04-25T07:43:17;11.60;81.50
1716;DHT22;855;48.824;9.220;2023-04-25T07:45:44;11.70;81.90
1716;DHT22;855;48.824;9.220;2023-04-25T07:48:11;11.70;82.10
1716;DHT22;855;48.824;9.220;2023-04-25T07:50:38;11.60;82.30
1716;DHT22;855;48.824;9.220;2023-04-25T07:53:05;11.50;82.90
1716;DHT22;855;48.824;9.220;2023-04-25T07:55:31;11.40;83.00
1716;DHT22;855;48.824;9.220;2023-04-25T07:57:59;11.50;84.90
1716;DHT22;855;48.824;9.220;2023-04-25T08:00:26;11.50;86.10
1716;DHT22;855;48.824;9.220;2023-04-25T08:02:53;11.50;85.80
1716;DHT22;855;48.824;9.220;2023-04-25T08:05:20;11.50;85.80
1716;DHT22;855;48.824;9.220;2023-04-25T08:07:47;11.40;85.70
1716;DHT22;855;48.824;9.220;2023-04-25T08:10:14;11.50;86.50
1716;DHT22;855;48.824;9.220;2023-04-25T08:12:41;11.50;86.50
1716;DHT22;855;48.824;9.220;2023-04-25T08:15:11;11.60;86.40
1716;DHT22;855;48.824;9.220;2023-04-25T08:17:39;11.50;85.20
1716;DHT22;855;48.824;9.220;2023-04-25T08:20:07;11.50;85.40
1716;DHT22;855;48.824;9.220;2023-04-25T08:22:34;11.40;85.70
1716;DHT22;855;48.824;9.220;2023-04-25T08:25:01;11.50;86.10
1716;DHT22;855;48.824;9.220;2023-04-25T08:27:27;11.40;85.80
1716;DHT22;855;48.824;9.220;2023-04-25T08:29:54;11.30;86.40
1716;DHT22;855;48.824;9.220;2023-04-25T08:32:23;11.30;85.80
1716;DHT22;855;48.824;9.220;2023-04-25T08:34:49;11.10;86.20
1716;DHT22;855;48.824;9.220;2023-04-25T08:37:19;11.00;87.40
1716;DHT22;855;48.824;9.220;2023-04-25T08:39:46;10.90;87.40
1716;DHT22;855;48.824;9.220;2023-04-25T08:42:15;10.90;87.50
1716;DHT22;855;48.824;9.220;2023-04-25T08:44:42;10.90;87.10
1716;DHT22;855;48.824;9.220;2023-04-25T08:47:08;10.80;88.10
1716;DHT22;855;48.824;9.220;2023-04-25T08:49:39;10.70;90.10
1716;DHT22;855;48.824;9.220;2023-04-25T08:52:09;10.80;90.50
1716;DHT22;855;48.824;9.220;2023-04-25T08:54:37;10.90;90.60
1716;DHT22;855;48.824;9.220;2023-04-25T08:57:09;10.90;91.10
1716;DHT22;855;48.824;9.220;2023-04-25T08:59:36;10.90;91.60
1716;DHT22;855;48.824;9.220;2023-04-25T09:02:04;10.90;91.30
1716;DHT22;855;48.824;9.220;2023-04-25T09:04:31;10.80;90.80
1716;DHT22;855;48.824;9.220;2023-04-25T09:06:59;10.80;91.10
1716;DHT22;855;48.824;9.220;2023-04-25T09:09:26;10.80;90.90
1716;DHT22;855;48.824;9.220;2023-04-25T09:11:54;10.80;90.70
1716;DHT22;855;48.824;9.220;2023-04-25T09:14:22;10.70;90.80
1716;DHT22;855;48.824;9.220;2023-04-25T09:16:58;10.50;90.60
1716;DHT22;855;48.824;9.220;2023-04-25T09:19:27;10.20;91.70
1716;DHT22;855;48.824;9.220;2023-04-25T09:21:54;10.20;92.90
1716;DHT22;855;48.824;9.220;2023-04-25T09:24:31;10.30;92.90
1716;DHT22;855;48.824;9.220;2023-04-25T09:26:58;10.30;93.40
1716;DHT22;855;48.824;9.220;2023-04-25T09:29:29;10.40;93.80
1716;DHT22;855;48.824;9.220;2023-04-25T09:32:11;10.30;93.20
1716;DHT22;855;48.824;9.220;2023-04-25T09:34:39;10.30;93.10
1716;DHT22;855;48.824;9.220;2023-04-25T09:37:08;10.30;92.80
1716;DHT22;855;48.824;9.220;2023-04-25T09:39:36;10.40;93.10
1716;DHT22;855;48.824;9.220;2023-04-25T09:42:03;10.60;93.30
1716;DHT22;855;48.824;9.220;2023-04-25T09:44:31;10.50;93.30
1716;DHT22;855;48.824;9.220;2023-04-25T09:46:58;10.50;92.40
1716;DHT22;855;48.824;9.220;2023-04-25T09:49:25;10.50;91.70
1716;DHT22;855;48.824;9.220;2023-04-25T09:51:56;10.50;91.90
1716;DHT22;855;48.824;9.220;2023-04-25T09:54:23;10.50;91.60
1716;DHT22;855;48.824;9.220;2023-04-25T09:56:53;10.50;91.50
1716;DHT22;855;48.824;9.220;2023-04-25T09:59:20;10.50;91.70
1716;DHT22;855;48.824;9.220;2023-04-25T10:01:48;10.50;91.50
1716;DHT22;855;48.824;9.220;2023-04-25T10:04:20;10.50;91.90
1716;DHT22;855;48.824;9.220;2023-04-25T10:06:49;10.50;91.60
1716;DHT22;855;48.824;9.220;2023-04-25T10:09:19;10.40;91.70
1716;DHT22;855;48.824;9.220;2023-04-25T10:11:47;10.30;92.20
1716;DHT22;855;48.824;9.220;2023-04-25T10:14:16;10.20;91.70
1716;DHT22;855;48.824;9.220;2023-04-25T10:16:43;10.20;91.70
1716;DHT22;855;48.824;9.220;2023-04-25T10:19:10;10.10;91.30
1716;DHT22;855;48.824;9.220;2023-04-25T10:21:44;10.00;91.50
1716;DHT22;855;48.824;9.220;2023-04-25T10:24:13;9.90;91.90
1716;DHT22;855;48.824;9.220;2023-04-25T10:26:40;9.70;92.00
1716;DHT22;855;48.824;9.220;2023-04-25T10:29:07;9.60;92.20
1716;DHT22;855;48.824;9.220;2023-04-25T10:31:45;9.40;92.30
1716;DHT22;855;48.824;9.220;2023-04-25T10:34:12;9.30;93.30
1716;DHT22;855;48.824;9.220;2023-04-25T10:36:39;9.20;93.00
1716;DHT22;855;48.824;9.220;2023-04-25T10:39:06;9.20;93.30
1716;DHT22;855;48.824;9.220;2023-04-25T10:41:46;9.00;93.50
1716;DHT22;855;48.824;9.220;2023-04-25T10:44:14;8.80;94.00
1716;DHT22;855;48.824;9.220;2023-04-25T10:46:44;8.70;94.20
1716;DHT22;855;48.824;9.220;2023-04-25T10:49:11;8.70;94.50
1716;DHT22;855;48.824;9.220;2023-04-25T10:52:11;8.70;94.80
1716;DHT22;855;48.824;9.220;2023-04-25T10:54:41;8.50;95.20
1716;DHT22;855;48.824;9.220;2023-04-25T10:57:07;8.50;95.30
1716;DHT22;855;48.824;9.220;2023-04-25T10:59:40;8.50;95.20
1716;DHT22;855;48.824;9.220;2023-04-25T11:02:12;8.40;95.50
1716;DHT22;855;48.824;9.220;2023-04-25T11:04:40;8.50;95.80
1716;DHT22;855;48.824;9.220;2023-04-25T11:07:13;8.50;96.00
1716;DHT22;855;48.824;9.220;2023-04-25T11:09:41;8.60;96.00
1716;DHT22;855;48.824;9.220;2023-04-25T11:12:09;8.80;96.00
1716;DHT22;855;48.824;9.220;2023-04-25T11:14:37;8.90;96.20
1716;DHT22;855;48.824;9.220;2023-04-25T11:17:04;9.00;96.40
1716;DHT22;855;48.824;9.220;2023-04-25T11:19:32;9.20;95.80
1716;DHT22;855;48.824;9.220;2023-04-25T11:22:00;9.40;95.20
1716;DHT22;855;48.824;9.220;2023-04-25T11:24:27;9.50;94.80
1716;DHT22;855;48.824;9.220;2023-04-25T11:26:54;9.70;95.00
1716;DHT22;855;48.824;9.220;2023-04-25T11:29:22;9.70;94.00
1716;DHT22;855;48.824;9.220;2023-04-25T11:31:49;9.90;93.10
1716;DHT22;855;48.824;9.220;2023-04-25T11:34:17;10.00;93.40
1716;DHT22;855;48.824;9.220;2023-04-25T11:36:46;10.10;93.50
1716;DHT22;855;48.824;9.220;2023-04-25T11:39:13;10.20;93.20
1716;DHT22;855;48.824;9.220;2023-04-25T11:41:41;10.20;91.90
1716;DHT22;855;48.824;9.220;2023-04-25T11:44:08;10.20;91.00
1716;DHT22;855;48.824;9.220;2023-04-25T11:46:35;10.30;90.90
1716;DHT22;855;48.824;9.220;2023-04-25T11:49:03;10.30;90.10
1716;DHT22;855;48.824;9.220;2023-04-25T11:51:30;10.30;89.50
1716;DHT22;855;48.824;9.220;2023-04-25T11:54:05;10.50;90.60
1716;DHT22;855;48.824;9.220;2023-04-25T11:56:32;10.40;89.50
1716;DHT22;855;48.824;9.220;2023-04-25T11:59:00;10.40;90.60
1716;DHT22;855;48.824;9.220;2023-04-25T12:01:28;10.60;91.50
1716;DHT22;855;48.824;9.220;2023-04-25T12:03:55;10.70;90.80
1716;DHT22;855;48.824;9.220;2023-04-25T12:06:26;10.70;88.60
1716;DHT22;855;48.824;9.220;2023-04-25T12:09:01;10.90;89.80
1716;DHT22;855;48.824;9.220;2023-04-25T12:11:31;10.90;89.00
1716;DHT22;855;48.824;9.220;2023-04-25T12:14:02;10.80;89.10
1716;DHT22;855;48.824;9.220;2023-04-25T12:16:30;10.80;88.50
1716;DHT22;855;48.824;9.220;2023-04-25T12:19:06;10.80;89.50
1716;DHT22;855;48.824;9.220;2023-04-25T12:21:32;10.90;89.90
1716;DHT22;855;48.824;9.220;2023-04-25T12:24:09;10.90;89.50
1716;DHT22;855;48.824;9.220;2023-04-25T12:26:50;10.70;87.90
1716;DHT22;855;48.824;9.220;2023-04-25T12:29:21;10.60;89.50
1716;DHT22;855;48.824;9.220;2023-04-25T12:31:50;10.60;90.30
1716;DHT22;855;48.824;9.220;2023-04-25T12:34:17;10.60;90.40
1716;DHT22;855;48.824;9.220;2023-04-25T12:36:44;10.60;91.20
1716;DHT22;855;48.824;9.220;2023-04-25T12:39:15;10.70;91.30
1716;DHT22;855;48.824;9.220;2023-04-25T12:41:42;10.90;91.80
1716;DHT22;855;48.824;9.220;2023-04-25T12:44:11;10.90;92.10
1716;DHT22;855;48.824;9.220;2023-04-25T12:46:38;11.00;91.30
1716;DHT22;855;48.824;9.220;2023-04-25T12:49:06;11.20;91.00
1716;DHT22;855;48.824;9.220;2023-04-25T12:51:34;11.40;91.00
1716;DHT22;855;48.824;9.220;2023-04-25T12:54:01;11.60;90.50
1716;DHT22;855;48.824;9.220;2023-04-25T12:56:28;11.90;90.10
1716;DHT22;855;48.824;9.220;2023-04-25T12:58:55;12.00;88.30
1716;DHT22;855;48.824;9.220;2023-04-25T13:01:24;12.20;88.60
1716;DHT22;855;48.824;9.220;2023-04-25T13:03:52;12.20;87.80
1716;DHT22;855;48.824;9.220;2023-04-25T13:06:19;12.10;87.70
1716;DHT22;855;48.824;9.220;2023-04-25T13:08:46;12.20;86.10
1716;DHT22;855;48.824;9.220;2023-04-25T13:11:13;12.30;84.90
1716;DHT22;855;48.824;9.220;2023-04-25T13:13:41;12.40;85.20
1716;DHT22;855;48.824;9.220;2023-04-25T13:16:08;12.40;83.20
1716;DHT22;855;48.824;9.220;2023-04-25T13:18:36;12.30;84.20
1716;DHT22;855;48.824;9.220;2023-04-25T13:21:03;12.40;82.30
1716;DHT22;855;48.824;9.220;2023-04-25T13:23:30;12.40;83.00
1716;DHT22;855;48.824;9.220;2023-04-25T13:25:57;12.30;82.90
1716;DHT22;855;48.824;9.220;2023-04-25T13:28:24;12.50;83.30
1716;DHT22;855;48.824;9.220;2023-04-25T13:30:51;12.60;84.10
1716;DHT22;855;48.824;9.220;2023-04-25T13:33:18;12.60;83.70
1716;DHT22;855;48.824;9.220;2023-04-25T13:35:48;12.60;83.20
1716;DHT22;855;48.824;9.220;2023-04-25T13:38:20;12.40;83.30
1716;DHT22;855;48.824;9.220;2023-04-25T13:40:47;12.50;82.70
1716;DHT22;855;48.824;9.220;2023-04-25T13:43:14;12.30;82.50
1716;DHT22;855;48.824;9.220;2023-04-25T13:45:42;12.20;83.80
1716;DHT22;855;48.824;9.220;2023-04-25T13:48:08;12.10;84.20
1716;DHT22;855;48.824;9.220;2023-04-25T13:50:35;12.00;83.60
1716;DHT22;855;48.824;9.220;2023-04-25T13:53:03;12.10;84.80
1716;DHT22;855;48.824;9.220;2023-04-25T13:55:30;12.20;85.60
1716;DHT22;855;48.824;9.220;2023-04-25T13:57:57;12.20;82.70
1716;DHT22;855;48.824;9.220;2023-04-25T14:00:24;12.10;81.20
1716;DHT22;855;48.824;9.220;2023-04-25T14:02:51;12.00;83.40
1716;DHT22;855;48.824;9.220;2023-04-25T14:05:19;12.10;83.20
1716;DHT22;855;48.824;9.220;2023-04-25T14:07:45;12.30;83.80
1716;DHT22;855;48.824;9.220;2023-04-25T14:10:13;12.20;83.20
1716;DHT22;855;48.824;9.220;2023-04-25T14:12:41;12.10;80.30
1716;DHT22;855;48.824;9.220;2023-04-25T14:15:08;12.00;81.50
1716;DHT22;855;48.824;9.220;2023-04-25T14:17:36;12.00;81.30
1716;DHT22;855;48.824;9.220;2023-04-25T14:20:03;12.20;81.50
1716;DHT22;855;48.824;9.220;2023-04-25T14:22:31;12.40;79.50
1716;DHT22;855;48.824;9.220;2023-04-25T14:24:58;12.50;78.70
1716;DHT22;855;48.824;9.220;2023-04-25T14:27:26;12.80;79.00
1716;DHT22;855;48.824;9.220;2023-04-25T14:29:53;13.00;79.70
1716;DHT22;855;48.824;9.220;2023-04-25T14:32:20;13.10;77.50
1716;DHT22;855;48.824;9.220;2023-04-25T14:34:47;13.10;77.00
1716;DHT22;855;48.824;9.220;2023-04-25T14:37:15;12.90;77.90
1716;DHT22;855;48.824;9.220;2023-04-25T14:39:41;12.90;78.00
1716;DHT22;855;48.824;9.220;2023-04-25T14:42:08;12.90;77.50
1716;DHT22;855;48.824;9.220;2023-04-25T14:44:38;12.90;77.80
1716;DHT22;855;48.824;9.220;2023-04-25T14:47:05;12.90;78.00
1716;DHT22;855;48.824;9.220;2023-04-25T14:49:32;12.70;76.00
1716;DHT22;855;48.824;9.220;2023-04-25T14:51:59;12.60;76.30
1716;DHT22;855;48.824;9.220;2023-04-25T14:54:26;12.50;77.40
1716;DHT22;855;48.824;9.220;2023-04-25T14:56:53;12.60;78.40
1716;DHT22;855;48.824;9.220;2023-04-25T14:59:20;12.50;76.40
1716;DHT22;855;48.824;9.220;2023-04-25T15:01:49;12.30;76.60
1716;DHT22;855;48.824;9.220;2023-04-25T15:04:16;12.40;78.20
1716;DHT22;855;48.824;9.220;2023-04-25T15:06:43;12.60;77.90
1716;DHT22;855;48.824;9.220;2023-04-25T15:09:10;12.70;76.60
1716;DHT22;855;48.824;9.220;2023-04-25T15:11:37;12.70;76.60
1716;DHT22;855;48.824;9.220;2023-04-25T15:14:04;12.60;77.60
1716;DHT22;855;48.824;9.220;2023-04-25T15:16:31;12.50;76.30
1716;DHT22;855;48.824;9.220;2023-04-25T15:18:59;12.40;76.30
1716;DHT22;855;48.824;9.220;2023-04-25T15:21:29;12.50;78.40
1716;DHT22;855;48.824;9.220;2023-04-25T15:23:57;12.60;78.00
1716;DHT22;855;48.824;9.220;2023-04-25T15:26:23;12.80;78.00
1716;DHT22;855;48.824;9.220;2023-04-25T15:28:50;13.00;75.80
1716;DHT22;855;48.824;9.220;2023-04-25T15:31:18;12.90;75.00
1716;DHT22;855;48.824;9.220;2023-04-25T15:33:44;12.90;71.80
1716;DHT22;855;48.824;9.220;2023-04-25T15:36:13;12.90;72.50
1716;DHT22;855;48.824;9.220;2023-04-25T15:38:41;12.90;71.40
1716;DHT22;855;48.824;9.220;2023-04-25T15:41:08;12.80;72.70
1716;DHT22;855;48.824;9.220;2023-04-25T15:43:35;12.80;73.10
1716;DHT22;855;48.824;9.220;2023-04-25T15:46:03;12.70;73.70
1716;DHT22;855;48.824;9.220;2023-04-25T15:48:30;12.80;74.90
1716;DHT22;855;48.824;9.220;2023-04-25T15:50:57;12.70;75.10
1716;DHT22;855;48.824;9.220;2023-04-25T15:53:25;12.80;75.00
1716;DHT22;855;48.824;9.220;2023-04-25T15:55:52;12.90;76.20
1716;DHT22;855;48.824;9.220;2023-04-25T15:58:19;12.70;74.10
1716;DHT22;855;48.824;9.220;2023-04-25T16:00:46;12.50;75.30
1716;DHT22;855;48.824;9.220;2023-04-25T16:03:15;12.50;76.60
1716;DHT22;855;48.824;9.220;2023-04-25T16:05:42;12.60;76.70
1716;DHT22;855;48.824;9.220;2023-04-25T16:08:09;12.60;76.80
1716;DHT22;855;48.824;9.220;2023-04-25T16:10:37;12.80;75.30
1716;DHT22;855;48.824;9.220;2023-04-25T16:13:04;12.90;76.40
1716;DHT22;855;48.824;9.220;2023-04-25T16:15:31;12.60;75.10
1716;DHT22;855;48.824;9.220;2023-04-25T16:17:58;12.60;75.00
1716;DHT22;855;48.824;9.220;2023-04-25T16:20:25;12.70;75.80
1716;DHT22;855;48.824;9.220;2023-04-25T16:22:51;12.60;75.50